Hansen, Nebraska
Current Conditions -  °F | °C
As of 2:08 PM on Thursday 23 Oct 2014 (Local Time) from KHSI Reporting Station
Haze Haze  
Wind Chill: 56°   Ceiling: 200
Heat Index: 56°   Visibility: 3mi
Dew Point: 53°   Wind: 7mph
Humidity: 90%   Direction: 230°SW
Pressure: 30.07"   Gusts: NA
Location:  40.5551°N, 98.369°W
Report Text: KHSI 231908Z AUTO 23006KT 3SM BR OVC002 13/12 A3007 RMK AO2 T01330117
Loading
Personal Weather Stations






























Interactive Weather Map
Tropical Storm Tracking
New forecast layout! Learn more

10-Day Weather Forecast

Advertisements
Track Severe Weather on mobile